Time;durP1;ratioP1;P1;durP2;ratioP2;P2;SDS_P1;SDS_P2;PMS_P1;PMS_P2;Temp;Humidity;BMP_temperature;BMP_pressure;BME280_temperature;BME280_humidity;BME280_pressure;Samples;Min_cycle;Max_cycle;Signal;HPM_P1;HPM_P2
2024/03/07 00:01:58;;;;;;;;;;;;;;;8.00;69.73;100494.75;4162983;28;20408;-68
2024/03/07 00:03:58;;;;;;;;;;;;;;;7.89;70.91;100492.94;4164932;28;19915;-69
2024/03/07 00:05:58;;;;;;;;;;;;;;;7.93;70.31;100494.41;4166073;28;19924;-71
2024/03/07 00:07:59;;;;;;;;;;;;;;;7.97;70.23;100495.84;4173236;28;19993;-69
2024/03/07 00:09:59;;;;;;;;;;;;;;;7.96;69.53;100499.47;4171501;28;20373;-69
2024/03/07 00:12:00;;;;;;;;;;;;;;;7.87;70.20;100494.00;4164064;28;20381;-69
2024/03/07 00:14:00;;;;;;;;;;;;;;;7.99;70.04;100494.88;4178445;28;19935;-69
2024/03/07 00:16:01;;;;;;;;;;;;;;;7.84;70.05;100494.25;4184837;28;19966;-69
2024/03/07 00:18:02;;;;;;;;;;;;;;;7.94;69.72;100492.56;4183914;28;20379;-68
2024/03/07 00:20:24;;;;;;;;;;;;;;;7.77;68.77;100493.84;4185203;28;19989;-69
2024/03/07 00:22:26;;;;;;;;;;;;;;;7.70;67.85;100496.13;4185621;28;19969;-69
2024/03/07 00:24:29;;;;;;;;;;;;;;;7.69;66.73;100496.25;4183422;28;19913;-69
2024/03/07 00:26:30;;;;;;;;;;;;;;;7.76;66.82;100493.00;4178040;28;19913;-68
2024/03/07 00:28:38;;;;;;;;;;;;;;;7.81;66.33;100498.00;4176817;28;19982;-68
2024/03/07 00:30:39;;;;;;;;;;;;;;;7.73;66.21;100497.72;4176597;28;19962;-69
2024/03/07 00:32:40;;;;;;;;;;;;;;;7.69;65.79;100497.09;4171701;28;19917;-67
2024/03/07 00:34:40;;;;;;;;;;;;;;;7.68;65.43;100497.19;4173106;28;20004;-69
2024/03/07 00:36:40;;;;;;;;;;;;;;;7.78;65.68;100493.75;4167251;28;19999;-69
2024/03/07 00:38:41;;;;;;;;;;;;;;;7.76;65.30;100494.81;4167643;28;19916;-68
2024/03/07 00:40:42;;;;;;;;;;;;;;;7.85;65.58;100496.78;4171387;28;19909;-68
2024/03/07 00:42:42;;;;;;;;;;;;;;;7.81;65.39;100495.31;4171523;28;19915;-69
2024/03/07 00:44:43;;;;;;;;;;;;;;;7.69;64.43;100491.78;4170752;28;19962;-68
2024/03/07 00:46:43;;;;;;;;;;;;;;;7.70;63.76;100487.28;4171202;28;19913;-69
2024/03/07 00:48:45;;;;;;;;;;;;;;;7.47;63.61;100492.50;4172743;28;19909;-69
2024/03/07 00:50:45;;;;;;;;;;;;;;;7.21;64.42;100500.59;4174829;28;19978;-69
2024/03/07 00:52:46;;;;;;;;;;;;;;;7.17;63.72;100492.00;4174494;28;19912;-69
2024/03/07 00:54:46;;;;;;;;;;;;;;;7.40;63.43;100485.94;4175335;28;19916;-69
2024/03/07 00:56:49;;;;;;;;;;;;;;;7.55;62.71;100491.94;4180835;28;19932;-68
2024/03/07 00:58:50;;;;;;;;;;;;;;;7.43;62.62;100485.72;4167476;28;20346;-68
2024/03/07 01:00:50;;;;;;;;;;;;;;;7.44;62.41;100488.28;4177266;28;19916;-68
2024/03/07 01:02:53;;;;;;;;;;;;;;;7.51;62.47;100493.16;4173045;28;19917;-69
2024/03/07 01:04:54;;;;;;;;;;;;;;;7.40;62.32;100481.50;4177903;28;19936;-69
2024/03/07 01:06:54;;;;;;;;;;;;;;;7.37;62.19;100486.19;4192184;28;19935;-69
2024/03/07 01:08:55;;;;;;;;;;;;;;;7.22;62.57;100483.69;4193109;28;20279;-69
2024/03/07 01:10:55;;;;;;;;;;;;;;;7.18;62.88;100488.38;4179127;28;20000;-69
2024/03/07 01:13:00;;;;;;;;;;;;;;;7.22;62.83;100478.38;4179530;28;20013;-68
2024/03/07 01:15:00;;;;;;;;;;;;;;;7.26;62.66;100479.00;4187998;28;19916;-68
2024/03/07 01:17:01;;;;;;;;;;;;;;;7.26;62.77;100479.00;4182459;28;19938;-68
2024/03/07 01:19:01;;;;;;;;;;;;;;;7.18;62.91;100476.88;4182298;28;19944;-68
2024/03/07 01:21:02;;;;;;;;;;;;;;;7.25;62.83;100479.94;4182039;28;19997;-68
2024/03/07 01:23:03;;;;;;;;;;;;;;;7.24;62.66;100486.22;4181830;28;19916;-69
2024/03/07 01:25:05;;;;;;;;;;;;;;;7.08;63.38;100484.69;4180538;28;19909;-68
2024/03/07 01:27:05;;;;;;;;;;;;;;;6.96;63.58;100483.78;4164871;28;19913;-68
2024/03/07 01:29:06;;;;;;;;;;;;;;;6.82;63.98;100476.81;4164162;28;19916;-69
2024/03/07 01:31:07;;;;;;;;;;;;;;;6.98;64.18;100478.34;4165273;28;19908;-68
2024/03/07 01:33:08;;;;;;;;;;;;;;;7.10;63.05;100485.44;4163472;28;19933;-68
2024/03/07 01:35:08;;;;;;;;;;;;;;;6.92;63.69;100482.28;4164530;28;20381;-69
2024/03/07 01:37:08;;;;;;;;;;;;;;;7.11;63.39;100486.28;4164966;28;19920;-69
2024/03/07 01:39:10;;;;;;;;;;;;;;;7.13;62.90;100481.69;4164951;28;19913;-69
2024/03/07 01:41:10;;;;;;;;;;;;;;;7.01;62.89;100476.31;4164714;28;20003;-69
2024/03/07 01:43:11;;;;;;;;;;;;;;;6.88;63.31;100475.53;4164610;28;19998;-69
2024/03/07 01:45:11;;;;;;;;;;;;;;;6.92;63.31;100476.16;4164737;28;19909;-69
2024/03/07 01:47:12;;;;;;;;;;;;;;;7.03;62.71;100466.44;4164688;28;19913;-68
2024/03/07 01:49:12;;;;;;;;;;;;;;;7.01;62.63;100470.16;4164700;28;20389;-68
2024/03/07 01:51:13;;;;;;;;;;;;;;;7.13;62.52;100468.41;4164626;28;19916;-69
2024/03/07 01:53:14;;;;;;;;;;;;;;;6.94;62.36;100467.09;4164722;28;20361;-68
2024/03/07 01:55:15;;;;;;;;;;;;;;;7.10;62.66;100463.31;4165269;28;19909;-71
2024/03/07 01:57:17;;;;;;;;;;;;;;;7.00;62.33;100463.97;4166044;28;20316;-71
2024/03/07 01:59:20;;;;;;;;;;;;;;;6.98;63.15;100465.94;4166966;28;19920;-69
2024/03/07 02:01:21;;;;;;;;;;;;;;;6.97;62.92;100461.56;4164393;28;19913;-68
2024/03/07 02:03:21;;;;;;;;;;;;;;;6.76;62.79;100455.13;4169830;28;19988;-68
2024/03/07 02:05:21;;;;;;;;;;;;;;;6.54;63.61;100454.88;4164939;28;19924;-68
2024/03/07 02:07:22;;;;;;;;;;;;;;;6.60;63.36;100455.38;4163248;28;19952;-68
2024/03/07 02:09:22;;;;;;;;;;;;;;;6.63;63.76;100456.00;4164476;28;19909;-70
2024/03/07 02:11:23;;;;;;;;;;;;;;;6.69;63.71;100455.59;4162895;28;20358;-67
2024/03/07 02:13:23;;;;;;;;;;;;;;;6.71;64.14;100452.81;4164217;28;20361;-70
2024/03/07 02:15:24;;;;;;;;;;;;;;;6.50;64.94;100456.03;4164075;28;19916;-69
2024/03/07 02:17:25;;;;;;;;;;;;;;;6.53;65.33;100457.59;4163246;28;19909;-69
2024/03/07 02:19:25;;;;;;;;;;;;;;;6.46;65.39;100453.69;4164339;28;20008;-68
2024/03/07 02:21:26;;;;;;;;;;;;;;;6.35;66.09;100443.84;4164161;28;20420;-68
2024/03/07 02:23:27;;;;;;;;;;;;;;;6.44;65.88;100450.28;4164084;28;20358;-68
2024/03/07 02:25:27;;;;;;;;;;;;;;;6.31;66.25;100450.31;4164435;28;19917;-68
2024/03/07 02:27:28;;;;;;;;;;;;;;;6.37;66.44;100444.59;4164330;28;19959;-70
2024/03/07 02:29:30;;;;;;;;;;;;;;;6.36;66.56;100442.88;4164524;28;20464;-68
2024/03/07 02:31:37;;;;;;;;;;;;;;;6.36;66.45;100437.56;4164307;28;19931;-70
2024/03/07 02:33:37;;;;;;;;;;;;;;;6.45;66.27;100431.59;4163843;28;19927;-67
2024/03/07 02:35:38;;;;;;;;;;;;;;;6.20;66.38;100437.78;4164016;28;19960;-68
2024/03/07 02:37:38;;;;;;;;;;;;;;;6.26;66.50;100445.31;4162783;28;19984;-69
2024/03/07 02:39:38;;;;;;;;;;;;;;;6.26;66.49;100436.50;4166451;28;19909;-67
2024/03/07 02:41:38;;;;;;;;;;;;;;;6.15;66.69;100435.47;4168089;28;19909;-69
2024/03/07 02:43:39;;;;;;;;;;;;;;;6.19;66.48;100428.13;4163824;28;19916;-69
2024/03/07 02:45:39;;;;;;;;;;;;;;;6.04;66.83;100430.03;4163681;28;19920;-68
2024/03/07 02:47:41;;;;;;;;;;;;;;;6.07;66.38;100443.94;4165157;28;19932;-69
2024/03/07 02:49:41;;;;;;;;;;;;;;;5.98;66.73;100430.44;4162517;28;20404;-70
2024/03/07 02:51:42;;;;;;;;;;;;;;;6.08;66.68;100419.09;4171807;28;19912;-69
2024/03/07 02:53:42;;;;;;;;;;;;;;;6.06;66.74;100430.78;4163578;28;19909;-68
2024/03/07 02:55:42;;;;;;;;;;;;;;;5.87;66.47;100426.72;4163904;28;19952;-69
2024/03/07 02:57:43;;;;;;;;;;;;;;;5.86;66.45;100427.66;4173044;28;19951;-68
2024/03/07 02:59:43;;;;;;;;;;;;;;;6.01;66.63;100422.28;4179978;28;19908;-68
2024/03/07 03:01:43;;;;;;;;;;;;;;;5.80;66.26;100419.28;4180811;28;19931;-69
2024/03/07 03:03:44;;;;;;;;;;;;;;;5.72;66.77;100428.59;4180324;28;19909;-70
2024/03/07 03:05:44;;;;;;;;;;;;;;;5.75;66.60;100425.75;4180440;28;19920;-69
2024/03/07 03:07:52;;;;;;;;;;;;;;;5.83;66.06;100424.38;4181278;28;19912;-69
2024/03/07 03:09:53;;;;;;;;;;;;;;;5.82;65.98;100428.81;4179865;28;19916;-70
2024/03/07 03:11:53;;;;;;;;;;;;;;;5.71;66.36;100426.91;4180548;28;20011;-69
2024/03/07 03:13:53;;;;;;;;;;;;;;;5.61;66.39;100425.81;4166857;28;19917;-69
2024/03/07 03:15:55;;;;;;;;;;;;;;;5.76;65.96;100415.97;4163801;28;19913;-69
2024/03/07 03:17:59;;;;;;;;;;;;;;;5.72;65.90;100422.44;4168380;28;20546;-69
2024/03/07 03:19:59;;;;;;;;;;;;;;;5.71;65.46;100426.91;4169367;28;19909;-69
2024/03/07 03:21:59;;;;;;;;;;;;;;;5.82;65.28;100422.69;4164019;28;19909;-69
2024/03/07 03:23:59;;;;;;;;;;;;;;;5.91;64.76;100422.03;4165042;28;20484;-69
2024/03/07 03:26:00;;;;;;;;;;;;;;;5.83;64.84;100429.69;4177813;28;19919;-69
2024/03/07 03:28:01;;;;;;;;;;;;;;;5.86;64.55;100424.16;4176685;28;20388;-70
2024/03/07 03:30:01;;;;;;;;;;;;;;;5.68;64.80;100429.75;4165676;28;19908;-69
2024/03/07 03:32:02;;;;;;;;;;;;;;;5.68;64.78;100431.56;4166135;28;19917;-69
2024/03/07 03:34:02;;;;;;;;;;;;;;;5.85;64.63;100428.63;4164772;28;19908;-69
2024/03/07 03:36:02;;;;;;;;;;;;;;;5.90;64.77;100437.09;4170592;28;19920;-70
2024/03/07 03:38:04;;;;;;;;;;;;;;;5.90;63.97;100431.78;4182131;28;20308;-69
2024/03/07 03:40:04;;;;;;;;;;;;;;;5.90;63.84;100425.66;4179936;28;19912;-69
2024/03/07 03:42:06;;;;;;;;;;;;;;;5.95;64.39;100423.53;4178380;28;19914;-69
2024/03/07 03:44:06;;;;;;;;;;;;;;;6.01;63.44;100433.75;4161517;28;19909;-69
2024/03/07 03:46:10;;;;;;;;;;;;;;;5.98;63.67;100431.28;4162956;28;19943;-70
2024/03/07 03:48:10;;;;;;;;;;;;;;;6.01;63.74;100432.88;4163299;28;20337;-69
2024/03/07 03:50:11;;;;;;;;;;;;;;;5.98;63.67;100425.97;4163338;28;19916;-69
2024/03/07 03:52:12;;;;;;;;;;;;;;;6.02;64.20;100422.19;4163304;28;19909;-69
2024/03/07 03:54:12;;;;;;;;;;;;;;;6.05;64.65;100429.91;4163029;28;19920;-68
2024/03/07 03:56:12;;;;;;;;;;;;;;;6.05;64.97;100435.22;4163208;28;19952;-69
2024/03/07 03:58:12;;;;;;;;;;;;;;;5.92;65.61;100434.38;4162841;28;19913;-69
2024/03/07 04:00:13;;;;;;;;;;;;;;;5.86;66.12;100434.75;4163035;28;20423;-69
2024/03/07 04:02:13;;;;;;;;;;;;;;;5.67;66.42;100428.06;4164921;28;19917;-69
2024/03/07 04:04:13;;;;;;;;;;;;;;;5.73;66.66;100421.47;4172624;28;20019;-69
2024/03/07 04:06:14;;;;;;;;;;;;;;;5.75;66.45;100422.25;4177829;28;20023;-69
2024/03/07 04:08:14;;;;;;;;;;;;;;;5.84;65.98;100420.78;4177915;28;19920;-69
2024/03/07 04:10:16;;;;;;;;;;;;;;;5.85;65.94;100423.31;4178947;28;19979;-69
2024/03/07 04:12:16;;;;;;;;;;;;;;;5.86;65.55;100424.16;4178905;28;19909;-69
2024/03/07 04:14:16;;;;;;;;;;;;;;;5.82;65.66;100420.84;4177951;28;19947;-69
2024/03/07 04:16:17;;;;;;;;;;;;;;;5.77;65.77;100426.47;4178939;28;19940;-69
2024/03/07 04:18:17;;;;;;;;;;;;;;;5.77;65.90;100426.47;4178833;28;20387;-69
2024/03/07 04:20:17;;;;;;;;;;;;;;;5.68;66.28;100432.41;4179622;28;20011;-69
2024/03/07 04:22:20;;;;;;;;;;;;;;;5.75;66.42;100428.41;4179637;28;19913;-68
2024/03/07 04:24:21;;;;;;;;;;;;;;;5.69;66.10;100434.13;4178180;28;19920;-69
2024/03/07 04:26:21;;;;;;;;;;;;;;;5.63;66.20;100432.72;4168024;28;19917;-69
2024/03/07 04:28:22;;;;;;;;;;;;;;;5.54;66.05;100424.53;4173374;28;20409;-68
2024/03/07 04:30:22;;;;;;;;;;;;;;;5.60;66.53;100422.34;4181354;28;19947;-69
2024/03/07 04:32:23;;;;;;;;;;;;;;;5.54;65.96;100424.53;4182359;28;19909;-69
2024/03/07 04:34:24;;;;;;;;;;;;;;;5.58;65.85;100429.53;4167566;28;20417;-69
2024/03/07 04:36:24;;;;;;;;;;;;;;;5.61;66.08;100425.81;4165684;28;19913;-68
2024/03/07 04:38:24;;;;;;;;;;;;;;;5.61;65.64;100423.19;4165837;28;19951;-69
2024/03/07 04:40:24;;;;;;;;;;;;;;;5.54;66.10;100424.53;4167250;28;19909;-69
2024/03/07 04:42:26;;;;;;;;;;;;;;;5.43;66.24;100417.31;4166994;28;19909;-69
2024/03/07 04:44:27;;;;;;;;;;;;;;;5.34;66.86;100418.78;4166862;28;19909;-69
2024/03/07 04:46:27;;;;;;;;;;;;;;;5.28;67.02;100419.19;4176325;28;19971;-69
2024/03/07 04:48:27;;;;;;;;;;;;;;;5.27;66.58;100422.78;4167242;28;20498;-69
2024/03/07 04:50:28;;;;;;;;;;;;;;;5.35;67.00;100422.25;4174011;28;19963;-70
2024/03/07 04:52:28;;;;;;;;;;;;;;;5.38;66.62;100430.03;4165234;28;20715;-70
2024/03/07 04:54:30;;;;;;;;;;;;;;;5.35;66.32;100423.13;4169173;28;19913;-69
2024/03/07 04:56:30;;;;;;;;;;;;;;;5.23;66.75;100426.56;4173755;28;20246;-69
2024/03/07 04:58:30;;;;;;;;;;;;;;;5.07;67.31;100427.59;4174101;28;20013;-69
2024/03/07 05:00:31;;;;;;;;;;;;;;;4.89;67.96;100428.78;4174476;28;19909;-69
2024/03/07 05:02:31;;;;;;;;;;;;;;;4.86;67.78;100427.19;4165725;28;19917;-69
2024/03/07 05:04:32;;;;;;;;;;;;;;;4.67;67.99;100425.72;4165878;28;19909;-69
2024/03/07 05:06:36;;;;;;;;;;;;;;;4.60;68.38;100432.34;4173516;28;19913;-70
2024/03/07 05:08:36;;;;;;;;;;;;;;;4.62;68.27;100430.44;4171017;28;19917;-69
2024/03/07 05:10:37;;;;;;;;;;;;;;;4.68;68.61;100432.69;4173623;28;20499;-69
2024/03/07 05:12:37;;;;;;;;;;;;;;;4.76;68.19;100432.22;4181067;28;19915;-68
2024/03/07 05:14:37;;;;;;;;;;;;;;;4.62;68.29;100424.31;4164399;28;19909;-68
2024/03/07 05:16:38;;;;;;;;;;;;;;;4.62;68.60;100426.97;4164517;28;19909;-69
2024/03/07 05:18:38;;;;;;;;;;;;;;;4.51;69.15;100425.84;4164574;28;19909;-69
2024/03/07 05:20:38;;;;;;;;;;;;;;;4.39;68.91;100433.69;4163841;28;20314;-69
2024/03/07 05:22:40;;;;;;;;;;;;;;;4.41;69.30;100424.72;4165224;28;19909;-69
2024/03/07 05:24:42;;;;;;;;;;;;;;;4.43;68.99;100420.16;4164487;28;19913;-69
2024/03/07 05:26:44;;;;;;;;;;;;;;;4.48;68.75;100419.88;4171165;28;19920;-69
2024/03/07 05:28:45;;;;;;;;;;;;;;;4.55;68.60;100422.97;4167660;28;19909;-68
2024/03/07 05:30:46;;;;;;;;;;;;;;;4.45;68.90;100412.97;4178141;28;20564;-69
2024/03/07 05:32:47;;;;;;;;;;;;;;;4.36;68.92;100422.34;4190493;28;19909;-69
2024/03/07 05:34:48;;;;;;;;;;;;;;;4.29;69.65;100426.31;4193128;28;19913;-69
2024/03/07 05:36:49;;;;;;;;;;;;;;;4.28;69.66;100429.91;4183424;28;20328;-69
2024/03/07 05:38:49;;;;;;;;;;;;;;;4.17;69.64;100427.91;4190157;28;19918;-70
2024/03/07 05:40:49;;;;;;;;;;;;;;;4.10;69.86;100423.09;4194890;28;19908;-70
2024/03/07 05:42:49;;;;;;;;;;;;;;;4.07;69.68;100426.78;4196363;28;19905;-69
2024/03/07 05:44:50;;;;;;;;;;;;;;;4.15;69.21;100421.03;4195303;28;19979;-69
2024/03/07 05:46:50;;;;;;;;;;;;;;;4.22;69.49;100417.03;4193827;28;19913;-69
2024/03/07 05:48:55;;;;;;;;;;;;;;;4.30;69.42;100421.88;4195677;28;20276;-69
2024/03/07 05:50:56;;;;;;;;;;;;;;;4.24;68.70;100420.44;4195061;28;19908;-68
2024/03/07 05:52:56;;;;;;;;;;;;;;;4.28;69.13;100418.47;4192236;28;19915;-68
2024/03/07 05:54:57;;;;;;;;;;;;;;;4.26;68.74;100415.91;4181643;28;20007;-69
2024/03/07 05:56:57;;;;;;;;;;;;;;;4.33;68.30;100408.47;4180674;28;20351;-68
2024/03/07 05:58:57;;;;;;;;;;;;;;;4.34;68.25;100418.94;4181861;28;19998;-69
2024/03/07 06:00:58;;;;;;;;;;;;;;;4.43;68.04;100419.31;4184299;28;19912;-68
2024/03/07 06:02:58;;;;;;;;;;;;;;;4.49;68.11;100417.13;4199540;28;19951;-68
2024/03/07 06:04:58;;;;;;;;;;;;;;;4.45;67.71;100415.59;4190335;28;19917;-69
2024/03/07 06:06:59;;;;;;;;;;;;;;;4.38;68.15;100422.25;4167584;28;19924;-69
2024/03/07 06:09:07;;;;;;;;;;;;;;;4.40;68.04;100422.13;4173084;28;19939;-69
2024/03/07 06:11:08;;;;;;;;;;;;;;;4.36;68.09;100421.47;4180982;28;20537;-69
2024/03/07 06:13:09;;;;;;;;;;;;;;;4.43;67.98;100416.66;4180542;28;19915;-69
2024/03/07 06:15:09;;;;;;;;;;;;;;;4.57;68.03;100427.25;4180980;28;20351;-69
2024/03/07 06:17:10;;;;;;;;;;;;;;;4.48;68.28;100415.44;4181623;28;20005;-69
2024/03/07 06:19:12;;;;;;;;;;;;;;;4.45;68.63;100415.59;4180382;28;19916;-68
2024/03/07 06:21:13;;;;;;;;;;;;;;;4.39;69.04;100415.16;4180825;28;19909;-69
2024/03/07 06:23:16;;;;;;;;;;;;;;;4.50;68.84;100425.91;4178608;28;19915;-69
2024/03/07 06:25:20;;;;;;;;;;;;;;;4.58;68.68;100422.78;4180294;28;20400;-68
2024/03/07 06:27:26;;;;;;;;;;;;;;;4.58;68.59;100426.28;4180608;28;19915;-69
2024/03/07 06:29:27;;;;;;;;;;;;;;;4.55;68.42;100422.97;4180655;28;20336;-68
2024/03/07 06:31:27;;;;;;;;;;;;;;;4.71;68.40;100425.50;4180609;28;19909;-69
2024/03/07 06:33:28;;;;;;;;;;;;;;;4.60;67.83;100423.56;4180214;28;19912;-69
2024/03/07 06:35:28;;;;;;;;;;;;;;;4.61;68.04;100423.44;4180469;28;19909;-68
2024/03/07 06:37:29;;;;;;;;;;;;;;;4.72;67.68;100417.47;4180225;28;19920;-68
2024/03/07 06:39:29;;;;;;;;;;;;;;;4.60;67.78;100423.56;4180396;28;19931;-69
2024/03/07 06:41:29;;;;;;;;;;;;;;;4.69;67.88;100413.19;4180731;28;19916;-68
2024/03/07 06:43:30;;;;;;;;;;;;;;;4.69;68.14;100417.66;4179015;28;20051;-69
2024/03/07 06:45:31;;;;;;;;;;;;;;;4.80;68.12;100420.47;4178790;28;19919;-69
2024/03/07 06:47:31;;;;;;;;;;;;;;;4.80;67.99;100420.47;4180205;28;19909;-69
2024/03/07 06:49:32;;;;;;;;;;;;;;;4.84;67.79;100421.97;4180561;28;19916;-68
2024/03/07 06:51:32;;;;;;;;;;;;;;;4.87;67.76;100420.91;4179980;28;20016;-69
2024/03/07 06:53:33;;;;;;;;;;;;;;;4.80;67.23;100420.47;4178798;28;20384;-69
2024/03/07 06:55:33;;;;;;;;;;;;;;;4.80;67.00;100417.84;4179163;28;20361;-69
2024/03/07 06:57:37;;;;;;;;;;;;;;;4.75;66.94;100425.22;4178146;28;20007;-68
2024/03/07 06:59:38;;;;;;;;;;;;;;;4.70;66.71;100429.97;4178892;28;19913;-69
2024/03/07 07:01:42;;;;;;;;;;;;;;;4.74;67.06;100428.81;4181629;28;19924;-68
2024/03/07 07:03:44;;;;;;;;;;;;;;;4.79;67.25;100428.50;4187293;28;19916;-67
2024/03/07 07:05:44;;;;;;;;;;;;;;;4.60;67.76;100428.84;4192657;28;19920;-69
2024/03/07 07:07:45;;;;;;;;;;;;;;;4.43;68.17;100432.53;4190293;28;19909;-70
2024/03/07 07:09:45;;;;;;;;;;;;;;;4.49;67.88;100426.84;4182758;28;20372;-68
2024/03/07 07:11:47;;;;;;;;;;;;;;;4.50;67.67;100432.06;4181181;28;19908;-68
2024/03/07 07:13:47;;;;;;;;;;;;;;;4.67;67.80;100428.38;4181613;28;19955;-68
2024/03/07 07:15:49;;;;;;;;;;;;;;;4.86;66.71;100423.69;4182257;28;19923;-70
2024/03/07 07:17:49;;;;;;;;;;;;;;;4.88;66.21;100413.84;4181194;28;19913;-69
2024/03/07 07:19:50;;;;;;;;;;;;;;;4.81;66.17;100421.31;4180516;28;19966;-69
2024/03/07 07:21:53;;;;;;;;;;;;;;;4.93;66.15;100412.59;4181149;28;19996;-69
2024/03/07 07:23:53;;;;;;;;;;;;;;;4.88;66.01;100414.66;4180522;28;19935;-70
2024/03/07 07:25:53;;;;;;;;;;;;;;;4.80;65.55;100415.19;4181187;28;19920;-69
2024/03/07 07:27:54;;;;;;;;;;;;;;;4.92;64.85;100412.66;4181260;28;19908;-69
2024/03/07 07:29:55;;;;;;;;;;;;;;;4.94;64.46;100410.78;4182022;28;19909;-68
2024/03/07 07:31:56;;;;;;;;;;;;;;;5.15;64.08;100414.69;4182291;28;19991;-69
2024/03/07 07:33:56;;;;;;;;;;;;;;;5.27;63.05;100417.47;4182433;28;19939;-70
2024/03/07 07:35:56;;;;;;;;;;;;;;;5.06;63.34;100417.06;4182762;28;20559;-69
2024/03/07 07:37:56;;;;;;;;;;;;;;;4.98;62.88;100413.13;4181999;28;19928;-69
2024/03/07 07:39:57;;;;;;;;;;;;;;;5.06;63.02;100415.28;4181900;28;19913;-70
2024/03/07 07:41:57;;;;;;;;;;;;;;;5.14;63.34;100407.69;4175193;28;19928;-68
2024/03/07 07:43:57;;;;;;;;;;;;;;;5.20;62.64;100403.78;4166847;28;19962;-69
2024/03/07 07:45:59;;;;;;;;;;;;;;;5.41;62.35;100404.16;4163338;28;19913;-69
2024/03/07 07:47:59;;;;;;;;;;;;;;;5.06;62.55;100403.81;4163096;28;20003;-69
2024/03/07 07:50:01;;;;;;;;;;;;;;;4.89;63.18;100404.94;4164363;28;19959;-69
2024/03/07 07:52:01;;;;;;;;;;;;;;;4.88;63.45;100390.81;4180326;28;19958;-69
2024/03/07 07:54:02;;;;;;;;;;;;;;;4.95;63.35;100399.22;4178180;28;20398;-70
2024/03/07 07:56:02;;;;;;;;;;;;;;;4.73;63.29;100387.38;4178524;28;19909;-69
2024/03/07 07:58:04;;;;;;;;;;;;;;;4.91;63.20;100390.63;4182522;28;19908;-68
2024/03/07 08:00:08;;;;;;;;;;;;;;;4.71;63.42;100384.00;4182607;28;19919;-69
2024/03/07 08:02:09;;;;;;;;;;;;;;;5.04;62.89;100390.69;4182684;28;20333;-69
2024/03/07 08:04:09;;;;;;;;;;;;;;;4.93;62.79;100390.53;4182665;28;19943;-69
2024/03/07 08:06:10;;;;;;;;;;;;;;;4.76;62.93;100391.66;4180985;28;19912;-70
2024/03/07 08:08:13;;;;;;;;;;;;;;;4.83;62.95;100395.59;4183198;28;19919;-69
2024/03/07 08:10:14;;;;;;;;;;;;;;;4.94;62.58;100389.59;4181197;28;19948;-69
2024/03/07 08:12:14;;;;;;;;;;;;;;;4.90;62.64;100393.41;4170573;28;19917;-69
2024/03/07 08:14:15;;;;;;;;;;;;;;;4.78;62.49;100389.72;4167279;28;20426;-69
2024/03/07 08:16:15;;;;;;;;;;;;;;;4.81;62.21;100384.22;4166191;28;20262;-69
2024/03/07 08:18:17;;;;;;;;;;;;;;;4.74;62.33;100388.25;4164387;28;19909;-68
2024/03/07 08:20:18;;;;;;;;;;;;;;;4.81;62.44;100387.75;4164336;28;19913;-68
2024/03/07 08:22:19;;;;;;;;;;;;;;;4.78;61.95;100385.28;4165389;28;19909;-68
2024/03/07 08:24:19;;;;;;;;;;;;;;;5.03;61.82;100383.69;4165471;28;19916;-68
2024/03/07 08:26:19;;;;;;;;;;;;;;;5.06;62.13;100380.84;4176240;28;20265;-69
2024/03/07 08:28:20;;;;;;;;;;;;;;;5.20;61.75;100384.34;4184788;28;20451;-68
2024/03/07 08:30:20;;;;;;;;;;;;;;;5.13;61.63;100387.44;4185554;28;19908;-68
2024/03/07 08:32:20;;;;;;;;;;;;;;;4.99;61.99;100383.03;4184804;28;19952;-69
2024/03/07 08:34:21;;;;;;;;;;;;;;;5.23;61.88;100373.56;4184129;28;20332;-70
2024/03/07 08:36:22;;;;;;;;;;;;;;;5.30;61.42;100370.41;4186047;28;19955;-70
2024/03/07 08:38:22;;;;;;;;;;;;;;;5.56;61.23;100365.13;4188932;28;19919;-69
2024/03/07 08:40:22;;;;;;;;;;;;;;;5.51;60.97;100358.44;4199944;28;20053;-69
2024/03/07 08:42:23;;;;;;;;;;;;;;;5.75;60.72;100356.78;4188774;28;20323;-70
2024/03/07 08:44:23;;;;;;;;;;;;;;;5.85;59.87;100353.47;4181288;28;19928;-70
2024/03/07 08:46:23;;;;;;;;;;;;;;;6.04;59.28;100356.59;4194268;28;19913;-69
2024/03/07 08:48:24;;;;;;;;;;;;;;;5.71;59.70;100362.41;4196565;28;20106;-68
2024/03/07 08:50:26;;;;;;;;;;;;;;;5.74;60.02;100356.88;4195709;28;19913;-69
2024/03/07 08:52:26;;;;;;;;;;;;;;;5.81;60.49;100359.94;4196822;28;19913;-68
2024/03/07 08:54:26;;;;;;;;;;;;;;;5.92;59.21;100349.44;4195079;28;19916;-68
2024/03/07 08:56:27;;;;;;;;;;;;;;;5.83;59.60;100347.44;4195271;28;19920;-69
2024/03/07 08:58:28;;;;;;;;;;;;;;;5.80;59.39;100350.28;4196010;28;20458;-70
2024/03/07 09:00:28;;;;;;;;;;;;;;;5.88;59.67;100355.91;4196099;28;19909;-69
2024/03/07 09:02:28;;;;;;;;;;;;;;;5.89;59.54;100349.66;4195335;28;19978;-67
2024/03/07 09:04:28;;;;;;;;;;;;;;;6.02;59.28;100354.97;4183844;28;19908;-69
2024/03/07 09:06:29;;;;;;;;;;;;;;;5.86;59.53;100349.84;4181561;28;20392;-69
2024/03/07 09:08:29;;;;;;;;;;;;;;;6.22;58.98;100345.63;4180638;28;19961;-68
2024/03/07 09:10:30;;;;;;;;;;;;;;;6.27;58.77;100347.94;4178248;28;20440;-68
2024/03/07 09:12:30;;;;;;;;;;;;;;;6.03;59.15;100357.53;4164891;28;19909;-68
2024/03/07 09:14:30;;;;;;;;;;;;;;;5.87;59.43;100351.56;4175549;28;19908;-69
2024/03/07 09:16:31;;;;;;;;;;;;;;;6.36;58.93;100363.22;4180528;28;19916;-69
2024/03/07 09:18:31;;;;;;;;;;;;;;;6.45;58.15;100343.09;4179823;28;19908;-69
2024/03/07 09:20:31;;;;;;;;;;;;;;;6.32;57.99;100340.47;4181298;28;19962;-68
2024/03/07 09:22:32;;;;;;;;;;;;;;;6.40;57.89;100333.69;4181001;28;19940;-69
2024/03/07 09:24:34;;;;;;;;;;;;;;;6.57;57.68;100339.56;4180618;28;19915;-69
2024/03/07 09:26:35;;;;;;;;;;;;;;;6.61;57.58;100335.72;4179332;28;19943;-69
2024/03/07 09:28:35;;;;;;;;;;;;;;;7.03;56.96;100333.50;4181050;28;20329;-69
2024/03/07 09:30:38;;;;;;;;;;;;;;;7.49;56.10;100337.16;4180725;28;19971;-69
2024/03/07 09:32:41;;;;;;;;;;;;;;;7.12;55.98;100336.44;4181368;28;19912;-68
2024/03/07 09:34:42;;;;;;;;;;;;;;;7.36;55.35;100325.75;4181175;28;19913;-69
2024/03/07 09:36:42;;;;;;;;;;;;;;;7.50;54.93;100327.34;4181443;28;19997;-68
2024/03/07 09:38:43;;;;;;;;;;;;;;;7.83;54.31;100324.84;4184541;28;19920;-68
2024/03/07 09:40:44;;;;;;;;;;;;;;;8.42;53.54;100321.03;4198434;28;19909;-69
2024/03/07 09:42:45;;;;;;;;;;;;;;;8.15;53.14;100326.78;4197108;28;19920;-69
2024/03/07 09:44:47;;;;;;;;;;;;;;;8.62;52.85;100329.28;4180923;28;19935;-69
2024/03/07 09:46:48;;;;;;;;;;;;;;;8.95;52.01;100319.47;4179857;28;19938;-69
2024/03/07 09:48:53;;;;;;;;;;;;;;;8.49;51.98;100324.97;4180678;28;19944;-69
2024/03/07 09:50:54;;;;;;;;;;;;;;;9.24;50.79;100313.53;4181010;28;19909;-70
2024/03/07 09:52:56;;;;;;;;;;;;;;;9.60;49.79;100314.03;4180972;28;19909;-69
2024/03/07 09:54:58;;;;;;;;;;;;;;;9.15;50.61;100310.66;4179044;28;19915;-69
2024/03/07 09:57:02;;;;;;;;;;;;;;;9.29;50.62;100305.97;4180258;28;20533;-69
2024/03/07 09:59:03;;;;;;;;;;;;;;;9.11;50.24;100313.72;4180422;28;19981;-69
2024/03/07 10:01:05;;;;;;;;;;;;;;;9.31;50.17;100304.84;4180413;28;20353;-69
2024/03/07 10:03:08;;;;;;;;;;;;;;;9.50;49.35;100304.16;4180385;28;20002;-70
2024/03/07 10:05:12;;;;;;;;;;;;;;;9.99;48.52;100303.53;4180834;28;19938;-69
2024/03/07 10:07:13;;;;;;;;;;;;;;;10.03;49.11;100299.59;4168502;28;20575;-70
2024/03/07 10:09:14;;;;;;;;;;;;;;;10.53;48.12;100295.28;4163818;28;19923;-69
2024/03/07 10:11:14;;;;;;;;;;;;;;;10.39;47.68;100300.00;4166154;28;19980;-70
2024/03/07 10:13:14;;;;;;;;;;;;;;;10.67;47.39;100286.84;4162126;28;20008;-71
2024/03/07 10:15:17;;;;;;;;;;;;;;;10.18;48.32;100297.41;4178613;28;19909;-71
2024/03/07 10:17:18;;;;;;;;;;;;;;;10.59;47.65;100292.88;4170387;28;20567;-69
2024/03/07 10:19:18;;;;;;;;;;;;;;;9.88;48.19;100295.63;4168761;28;19924;-69
2024/03/07 10:21:23;;;;;;;;;;;;;;;9.94;48.25;100300.41;4172578;28;19932;-70
2024/03/07 10:23:24;;;;;;;;;;;;;;;10.20;48.60;100283.94;4172716;28;19912;-69
2024/03/07 10:25:26;;;;;;;;;;;;;;;10.36;47.75;100288.72;4174023;28;19913;-69
2024/03/07 10:27:27;;;;;;;;;;;;;;;10.54;47.65;100286.28;4171639;28;19909;-71
2024/03/07 10:29:28;;;;;;;;;;;;;;;10.74;47.16;100284.44;4170336;28;20501;-71